Time;durP1;ratioP1;P1;durP2;ratioP2;P2;SDS_P1;SDS_P2;PMS_P1;PMS_P2;Temp;Humidity;BMP_temperature;BMP_pressure;BME280_temperature;BME280_humidity;BME280_pressure;Samples;Min_cycle;Max_cycle;Signal;HPM_P1;HPM_P2
2022/01/25 00:10:25;;;;;;;33.03;21.70;;;6.10;91.20;;;;;;9177571;19;20396;-73
2022/01/25 00:26:58;;;;;;;31.13;21.73;;;6.10;91.20;;;;;;9181065;19;20055;-73
2022/01/25 00:30:24;;;;;;;33.75;22.60;;;6.10;91.20;;;;;;9179795;19;20029;-72
2022/01/25 00:33:30;;;;;;;34.90;23.10;;;6.10;91.20;;;;;;9183468;19;20015;-73
2022/01/25 00:36:35;;;;;;;34.85;22.98;;;6.00;91.20;;;;;;9180374;19;20018;-73
2022/01/25 00:39:41;;;;;;;34.20;22.55;;;6.00;91.20;;;;;;9185638;19;20026;-73
2022/01/25 00:42:46;;;;;;;34.60;22.48;;;6.00;91.20;;;;;;9183048;19;20030;-73
2022/01/25 00:45:57;;;;;;;38.15;22.77;;;6.00;91.20;;;;;;9182290;19;20022;-73
2022/01/25 00:49:03;;;;;;;34.45;22.67;;;6.00;91.20;;;;;;9183568;19;20015;-73
2022/01/25 00:52:23;;;;;;;35.13;23.20;;;6.00;91.20;;;;;;9185265;19;20018;-73
2022/01/25 00:55:32;;;;;;;41.47;25.38;;;6.00;91.20;;;;;;9185227;19;20019;-73
2022/01/25 00:58:37;;;;;;;37.40;24.02;;;6.00;91.20;;;;;;9184573;19;20037;-73
2022/01/25 01:01:46;;;;;;;35.80;23.15;;;6.00;91.20;;;;;;9182989;19;20030;-73
2022/01/25 01:04:51;;;;;;;36.00;23.10;;;6.00;91.20;;;;;;9179455;19;20014;-73
2022/01/25 01:07:56;;;;;;;39.88;23.25;;;6.00;91.20;;;;;;9182685;19;20022;-73
2022/01/25 01:11:05;;;;;;;37.72;24.60;;;6.00;91.20;;;;;;9186608;19;20022;-73
2022/01/25 01:14:17;;;;;;;37.25;24.00;;;6.00;91.20;;;;;;9186324;19;20025;-72
2022/01/25 01:30:47;;;;;;;34.50;22.35;;;6.00;91.20;;;;;;9186613;19;20471;-72
2022/01/25 01:40:52;;;;;;;35.63;23.15;;;6.00;91.20;;;;;;9181355;19;20018;-74
2022/01/25 01:43:58;;;;;;;36.25;23.55;;;6.00;91.20;;;;;;9182625;19;20007;-72
2022/01/25 01:47:08;;;;;;;34.67;22.13;;;6.00;91.20;;;;;;9183908;19;20022;-73
2022/01/25 01:50:27;;;;;;;36.53;23.10;;;6.00;91.20;;;;;;9182483;19;20099;-74
2022/01/25 01:53:33;;;;;;;34.10;22.40;;;5.90;91.20;;;;;;9182513;19;20011;-73
2022/01/25 01:56:39;;;;;;;36.58;22.55;;;5.90;91.20;;;;;;9179508;19;20022;-73
2022/01/25 01:59:44;;;;;;;35.42;23.25;;;5.90;91.20;;;;;;9181418;19;20010;-73
2022/01/25 02:02:49;;;;;;;37.05;23.52;;;5.90;91.20;;;;;;9180938;19;20021;-74
2022/01/25 02:05:57;;;;;;;38.38;23.48;;;5.90;91.20;;;;;;9180752;19;20018;-73
2022/01/25 02:09:02;;;;;;;38.22;22.95;;;5.90;91.20;;;;;;9181137;19;20453;-73
2022/01/25 02:12:09;;;;;;;37.28;22.52;;;5.90;91.20;;;;;;9179760;19;20044;-73
2022/01/25 02:15:17;;;;;;;33.95;22.85;;;5.90;91.20;;;;;;9181733;19;20010;-72
2022/01/25 02:25:17;;;;;;;39.40;23.73;;;5.90;91.10;;;;;;9182089;19;20018;-73
2022/01/25 02:28:23;;;;;;;34.45;22.60;;;5.90;91.20;;;;;;9177433;19;20025;-72
2022/01/25 02:31:28;;;;;;;36.75;23.58;;;5.90;91.10;;;;;;9179226;19;20033;-73
2022/01/25 02:34:34;;;;;;;35.42;23.08;;;5.90;91.10;;;;;;9180434;19;20022;-73
2022/01/25 02:37:41;;;;;;;36.00;24.00;;;5.90;91.10;;;;;;9182124;19;20022;-73
2022/01/25 02:40:46;;;;;;;38.55;24.50;;;5.90;91.10;;;;;;9179852;19;20022;-73
2022/01/25 02:43:52;;;;;;;37.42;24.55;;;5.90;91.10;;;;;;9179582;19;20018;-72
2022/01/25 02:50:21;;;;;;;35.63;23.05;;;5.80;91.10;;;;;;9180390;19;20015;-73
2022/01/25 02:53:30;;;;;;;36.90;23.85;;;5.80;91.10;;;;;;9182884;19;20386;-73
2022/01/25 02:56:36;;;;;;;41.03;25.05;;;5.80;91.10;;;;;;9182123;19;20014;-72
2022/01/25 02:59:41;;;;;;;37.15;22.85;;;5.80;91.10;;;;;;9177993;19;20102;-73
2022/01/25 03:02:46;;;;;;;35.33;23.15;;;5.80;91.30;;;;;;9178281;19;20043;-73
2022/01/25 03:05:51;;;;;;;40.55;23.80;;;5.80;91.10;;;;;;9176166;19;20472;-74
2022/01/25 03:08:59;;;;;;;36.15;23.48;;;5.80;91.10;;;;;;9180301;19;20428;-73
2022/01/25 03:12:07;;;;;;;41.58;24.42;;;5.80;91.00;;;;;;9179021;19;20356;-74
2022/01/25 03:15:25;;;;;;;41.00;24.50;;;5.80;91.00;;;;;;9179796;19;20018;-73
2022/01/25 03:18:47;;;;;;;36.75;24.33;;;5.80;91.00;;;;;;9179561;19;20048;-73
2022/01/25 03:21:52;;;;;;;37.47;24.48;;;5.80;91.00;;;;;;9180081;19;20602;-73
2022/01/25 03:25:00;;;;;;;38.17;24.52;;;5.80;91.00;;;;;;9179324;19;20023;-74
2022/01/25 03:28:05;;;;;;;39.72;23.42;;;5.80;91.00;;;;;;9179493;19;20029;-72
2022/01/25 03:31:11;;;;;;;37.28;24.35;;;5.80;91.10;;;;;;9177350;19;20051;-74
2022/01/25 03:34:16;;;;;;;39.17;23.70;;;5.80;91.00;;;;;;9178221;19;20014;-73
2022/01/25 03:37:21;;;;;;;34.42;23.30;;;5.80;91.10;;;;;;9180556;19;20018;-73
2022/01/25 03:40:29;;;;;;;37.53;24.25;;;5.80;91.10;;;;;;9177736;19;20018;-72
2022/01/25 03:43:34;;;;;;;38.13;23.45;;;5.80;91.00;;;;;;9178046;19;20038;-73
2022/01/25 03:46:53;;;;;;;37.88;23.55;;;5.70;91.00;;;;;;9177324;19;20019;-74
2022/01/25 03:49:59;;;;;;;36.35;23.65;;;5.80;91.00;;;;;;9183607;19;20488;-73
2022/01/25 03:53:05;;;;;;;37.17;23.25;;;5.70;91.00;;;;;;9186055;19;20014;-73
2022/01/25 03:56:12;;;;;;;37.92;23.55;;;5.80;91.00;;;;;;9189534;19;20082;-73
2022/01/25 03:59:18;;;;;;;35.75;23.45;;;5.70;91.00;;;;;;9188061;19;20102;-72
2022/01/25 04:02:26;;;;;;;37.72;25.10;;;5.80;91.00;;;;;;9184346;19;20010;-73
2022/01/25 04:05:38;;;;;;;36.42;23.35;;;5.70;91.00;;;;;;9182431;19;20018;-73
2022/01/25 04:08:43;;;;;;;35.55;22.95;;;5.70;91.00;;;;;;9184372;19;20472;-73
2022/01/25 04:11:51;;;;;;;37.00;23.75;;;5.70;90.90;;;;;;9186397;19;20380;-73
2022/01/25 04:14:56;;;;;;;35.83;23.58;;;5.70;90.90;;;;;;9188889;19;20051;-72
2022/01/25 04:18:16;;;;;;;41.42;24.23;;;5.70;91.20;;;;;;9183352;19;20357;-73
2022/01/25 04:21:41;;;;;;;37.33;23.85;;;5.70;90.90;;;;;;9184348;19;20026;-72
2022/01/25 04:25:04;;;;;;;40.63;24.33;;;5.70;90.90;;;;;;9184835;19;20018;-73
2022/01/25 04:28:23;;;;;;;39.78;24.45;;;5.70;90.90;;;;;;9185286;19;20011;-73
2022/01/25 04:31:28;;;;;;;38.38;23.83;;;5.60;90.80;;;;;;9187102;19;20025;-74
2022/01/25 04:34:47;;;;;;;37.83;24.35;;;5.70;90.90;;;;;;9187802;19;20015;-72
2022/01/25 04:51:29;;;;;;;45.35;26.33;;;5.60;90.80;;;;;;9184890;19;20026;-72
2022/01/25 04:54:52;;;;;;;38.92;24.30;;;5.60;90.80;;;;;;9186167;19;20014;-73
2022/01/25 04:58:03;;;;;;;39.85;24.90;;;5.50;90.80;;;;;;9185898;19;20011;-74
2022/01/25 05:01:11;;;;;;;42.15;25.13;;;5.50;90.80;;;;;;9181726;19;20033;-73
2022/01/25 05:04:26;;;;;;;43.17;25.33;;;5.50;90.80;;;;;;9178304;19;20011;-72
2022/01/25 05:07:38;;;;;;;38.55;23.70;;;5.50;90.80;;;;;;9183332;19;20755;-73
2022/01/25 05:10:50;;;;;;;39.10;24.10;;;5.50;90.80;;;;;;9183772;19;20019;-73
2022/01/25 05:14:11;;;;;;;40.33;24.83;;;5.50;90.80;;;;;;9185563;19;20341;-73
2022/01/25 05:17:29;;;;;;;42.55;25.15;;;5.50;90.80;;;;;;9186794;19;20015;-72
2022/01/25 05:23:51;;;;;;;38.80;24.10;;;5.50;90.80;;;;;;9181981;19;20014;-73
2022/01/25 05:26:57;;;;;;;43.50;26.38;;;5.50;90.80;;;;;;9183860;19;20047;-73
2022/01/25 05:30:02;;;;;;;41.75;25.90;;;5.50;90.80;;;;;;9183025;19;20014;-73
2022/01/25 05:33:10;;;;;;;38.35;23.17;;;5.50;90.80;;;;;;9184622;19;20021;-73
2022/01/25 05:36:16;;;;;;;42.67;24.77;;;5.50;90.80;;;;;;9184822;19;20021;-74
2022/01/25 05:39:25;;;;;;;41.25;25.33;;;5.50;90.80;;;;;;9185817;19;20023;-73
2022/01/25 05:46:00;;;;;;;43.13;25.95;;;5.40;90.70;;;;;;9184089;19;20014;-73
2022/01/25 05:49:08;;;;;;;43.10;25.45;;;5.40;90.70;;;;;;9184307;19;20018;-73
2022/01/25 05:52:14;;;;;;;43.22;24.33;;;5.40;90.70;;;;;;9182866;19;20028;-73
2022/01/25 05:55:19;;;;;;;44.55;24.95;;;5.40;90.70;;;;;;9181512;19;20587;-73
2022/01/25 05:58:28;;;;;;;45.78;25.55;;;5.40;90.70;;;;;;9180604;19;20018;-73
2022/01/25 06:01:36;;;;;;;39.30;23.90;;;5.40;90.70;;;;;;9180883;19;20100;-73
2022/01/25 06:04:47;;;;;;;40.85;23.83;;;5.40;90.70;;;;;;9179361;19;20019;-72
2022/01/25 06:07:52;;;;;;;40.20;24.48;;;5.40;90.70;;;;;;9184445;19;20022;-73
2022/01/25 06:10:57;;;;;;;43.00;24.40;;;5.40;90.70;;;;;;9183250;19;20429;-74
2022/01/25 06:14:02;;;;;;;40.33;24.70;;;5.40;90.70;;;;;;9179211;19;20010;-73
2022/01/25 06:17:10;;;;;;;40.90;24.27;;;5.40;90.70;;;;;;9180654;19;20026;-73
2022/01/25 06:20:18;;;;;;;42.05;24.13;;;5.40;90.70;;;;;;9182768;19;20484;-73
2022/01/25 06:23:23;;;;;;;41.20;23.67;;;5.40;90.70;;;;;;9182118;19;20025;-73
2022/01/25 06:26:28;;;;;;;41.45;24.55;;;5.40;90.70;;;;;;9180859;19;20467;-74
2022/01/25 06:29:33;;;;;;;41.25;23.23;;;5.40;90.70;;;;;;9179045;19;20018;-73
2022/01/25 06:32:38;;;;;;;40.20;23.42;;;5.40;90.70;;;;;;9181653;19;20433;-74
2022/01/25 06:35:47;;;;;;;38.90;22.67;;;5.40;90.70;;;;;;9181793;19;20081;-73
2022/01/25 06:38:52;;;;;;;42.47;23.48;;;5.40;90.70;;;;;;9182225;19;20033;-72
2022/01/25 06:42:02;;;;;;;41.88;23.55;;;5.40;90.70;;;;;;9179898;19;20754;-73
2022/01/25 06:45:14;;;;;;;38.92;22.73;;;5.40;90.70;;;;;;9176906;19;20029;-73
2022/01/25 06:48:19;;;;;;;39.97;23.25;;;5.40;90.70;;;;;;9180101;19;20014;-74
2022/01/25 06:51:30;;;;;;;40.28;23.05;;;5.40;90.70;;;;;;9179683;19;20015;-73
2022/01/25 06:54:36;;;;;;;37.38;22.50;;;5.40;90.70;;;;;;9182782;19;20021;-73
2022/01/25 06:57:44;;;;;;;37.25;22.20;;;5.40;90.70;;;;;;9180482;19;20376;-73
2022/01/25 07:00:52;;;;;;;38.13;21.73;;;5.40;90.60;;;;;;9179280;19;20011;-72
2022/01/25 07:03:57;;;;;;;38.67;22.30;;;5.40;90.70;;;;;;9177635;19;20022;-72
2022/01/25 07:07:05;;;;;;;39.35;22.90;;;5.40;90.70;;;;;;9178506;19;20025;-73
2022/01/25 07:10:11;;;;;;;41.28;23.23;;;5.40;90.70;;;;;;9178543;19;20389;-74
2022/01/25 07:13:16;;;;;;;37.38;22.70;;;5.40;90.60;;;;;;9181904;19;20038;-73
2022/01/25 07:16:21;;;;;;;41.10;22.38;;;5.40;90.60;;;;;;9172098;19;20056;-74
2022/01/25 07:19:29;;;;;;;42.92;23.92;;;5.30;90.60;;;;;;9173982;19;20029;-74
2022/01/25 07:22:38;;;;;;;41.25;23.60;;;5.30;90.60;;;;;;9175803;19;20376;-73
2022/01/25 07:25:45;;;;;;;38.95;22.38;;;5.30;90.60;;;;;;9174812;19;20760;-73
2022/01/25 07:28:50;;;;;;;40.58;22.60;;;5.30;90.60;;;;;;9175544;19;20010;-72
2022/01/25 07:31:55;;;;;;;40.67;23.50;;;5.30;90.60;;;;;;9173921;19;20021;-73
2022/01/25 07:35:07;;;;;;;42.65;22.92;;;5.30;90.60;;;;;;9175950;19;20017;-72
2022/01/25 07:38:21;;;;;;;43.90;22.63;;;5.30;90.60;;;;;;9176248;19;20018;-72
2022/01/25 07:41:43;;;;;;;39.65;21.25;;;5.30;90.60;;;;;;9178382;19;20039;-73
2022/01/25 07:44:52;;;;;;;39.72;21.60;;;5.30;90.60;;;;;;9176436;19;20591;-73
2022/01/25 07:47:58;;;;;;;36.65;21.63;;;5.30;90.70;;;;;;9176841;19;20479;-73
2022/01/25 07:51:03;;;;;;;37.05;20.67;;;5.30;90.60;;;;;;9177466;19;20014;-73
2022/01/25 07:54:12;;;;;;;40.28;22.27;;;5.30;90.60;;;;;;9175850;19;20056;-74
2022/01/25 07:57:17;;;;;;;37.42;22.20;;;5.30;90.60;;;;;;9174681;19;20018;-74
2022/01/25 08:00:25;;;;;;;36.75;21.60;;;5.30;90.60;;;;;;9176753;19;20018;-73
2022/01/25 08:03:30;;;;;;;40.55;22.63;;;5.30;90.60;;;;;;9175588;19;20015;-74
2022/01/25 08:06:49;;;;;;;40.63;23.08;;;5.30;90.60;;;;;;9171338;19;20480;-74
2022/01/25 08:09:57;;;;;;;40.25;22.45;;;5.30;90.60;;;;;;9176345;19;20022;-73
2022/01/25 08:13:16;;;;;;;38.28;21.38;;;5.40;90.60;;;;;;9173807;19;20018;-74
2022/01/25 08:16:38;;;;;;;38.60;22.63;;;5.30;90.60;;;;;;9173571;19;20018;-74
2022/01/25 08:20:00;;;;;;;41.17;22.17;;;5.30;90.60;;;;;;9174113;19;20018;-73
2022/01/25 08:23:25;;;;;;;37.30;21.55;;;5.30;90.60;;;;;;9170585;19;20074;-72
2022/01/25 08:26:38;;;;;;;39.63;22.90;;;5.40;90.70;;;;;;9166106;19;20015;-73
2022/01/25 08:29:56;;;;;;;40.58;22.88;;;5.40;90.60;;;;;;9165957;19;20018;-73
2022/01/25 08:33:08;;;;;;;44.03;22.27;;;5.40;90.60;;;;;;9167655;19;20146;-73
2022/01/25 08:36:36;;;;;;;38.28;21.83;;;5.40;90.60;;;;;;9175985;19;20029;-74
2022/01/25 08:39:44;;;;;;;41.70;23.42;;;5.40;90.60;;;;;;9178302;19;20031;-74
2022/01/25 08:42:59;;;;;;;41.25;22.75;;;5.40;90.60;;;;;;9177964;19;20184;-73
2022/01/25 08:46:20;;;;;;;41.15;23.02;;;5.40;90.60;;;;;;9174899;19;20027;-73
2022/01/25 08:49:30;;;;;;;39.22;22.10;;;5.40;90.70;;;;;;9177560;19;20014;-73
2022/01/25 08:53:01;;;;;;;39.72;20.88;;;5.40;90.60;;;;;;9174519;19;20015;-72
2022/01/25 08:56:20;;;;;;;38.63;21.55;;;5.40;90.60;;;;;;9175512;19;20015;-74
2022/01/25 08:59:45;;;;;;;39.85;21.23;;;5.40;90.90;;;;;;9176831;19;20022;-74
2022/01/25 09:02:50;;;;;;;40.38;21.52;;;5.40;90.60;;;;;;9174482;19;20014;-72
2022/01/25 09:05:56;;;;;;;41.60;22.40;;;5.40;90.60;;;;;;9175731;19;20050;-73
2022/01/25 09:09:03;;;;;;;40.50;22.45;;;5.50;90.70;;;;;;9175596;19;20014;-72
2022/01/25 09:12:10;;;;;;;41.70;23.02;;;5.40;90.60;;;;;;9178471;19;20016;-73
2022/01/25 09:15:17;;;;;;;41.85;22.48;;;5.50;90.60;;;;;;9179881;19;20449;-73
2022/01/25 09:18:24;;;;;;;43.55;23.25;;;5.50;90.60;;;;;;9181017;19;20014;-73
2022/01/25 09:21:29;;;;;;;39.22;21.95;;;5.50;90.60;;;;;;9180381;19;20046;-74
2022/01/25 09:24:34;;;;;;;36.92;20.92;;;5.50;90.60;;;;;;9177223;19;20015;-73
2022/01/25 09:27:43;;;;;;;44.22;23.35;;;5.50;90.60;;;;;;9178693;19;20767;-73
2022/01/25 09:30:51;;;;;;;40.00;20.85;;;5.60;90.60;;;;;;9179173;19;20015;-74
2022/01/25 09:33:58;;;;;;;40.53;21.23;;;5.50;90.60;;;;;;9184148;19;20030;-74
2022/01/25 09:37:05;;;;;;;40.95;22.05;;;5.50;90.60;;;;;;9184231;19;20018;-73
2022/01/25 09:40:14;;;;;;;39.92;23.00;;;5.60;90.60;;;;;;9180094;19;20011;-73
2022/01/25 09:43:20;;;;;;;39.83;22.80;;;5.60;90.60;;;;;;9182347;19;20011;-73
2022/01/25 09:46:27;;;;;;;43.85;23.10;;;5.60;90.60;;;;;;9180169;19;20372;-74
2022/01/25 09:49:36;;;;;;;43.78;22.30;;;5.60;90.60;;;;;;9183379;19;20365;-73
2022/01/25 09:52:44;;;;;;;41.95;23.77;;;5.60;90.60;;;;;;9183038;19;20018;-73
2022/01/25 09:55:49;;;;;;;39.78;21.65;;;5.60;90.60;;;;;;9179776;19;20015;-73
2022/01/25 09:58:54;;;;;;;39.92;21.67;;;5.60;90.60;;;;;;9177404;19;20815;-73
2022/01/25 10:02:02;;;;;;;36.90;21.60;;;5.60;90.60;;;;;;9182749;19;20021;-74
2022/01/25 10:05:18;;;;;;;37.08;20.83;;;5.60;90.50;;;;;;9177199;19;20018;-73
2022/01/25 10:08:26;;;;;;;40.72;21.60;;;5.60;90.50;;;;;;9182688;19;20055;-72
2022/01/25 10:11:31;;;;;;;42.70;22.83;;;5.60;90.50;;;;;;9179370;19;20018;-73
2022/01/25 10:14:36;;;;;;;38.15;21.00;;;5.70;90.50;;;;;;9179704;19;20022;-73
2022/01/25 10:17:43;;;;;;;37.05;20.55;;;5.60;90.50;;;;;;9182785;19;20045;-73
2022/01/25 10:20:51;;;;;;;38.50;19.77;;;5.60;90.50;;;;;;9181238;19;20030;-74
2022/01/25 10:24:10;;;;;;;33.13;19.65;;;5.60;90.50;;;;;;9183606;19;20049;-72
2022/01/25 10:30:41;;;;;;;41.08;22.60;;;5.70;90.50;;;;;;9178826;19;20820;-73
2022/01/25 10:33:54;;;;;;;36.10;20.85;;;5.70;90.50;;;;;;9181579;19;20023;-73
2022/01/25 10:37:18;;;;;;;37.63;20.75;;;5.70;90.50;;;;;;9180379;19;20014;-73
2022/01/25 10:40:38;;;;;;;38.63;20.65;;;5.70;90.50;;;;;;9182689;19;20052;-73
2022/01/25 10:43:45;;;;;;;41.63;22.38;;;5.70;90.50;;;;;;9179823;19;20487;-70
2022/01/25 10:46:50;;;;;;;34.05;19.73;;;5.70;90.50;;;;;;9179329;19;20014;-71
2022/01/25 10:49:58;;;;;;;35.17;19.17;;;5.70;90.50;;;;;;9176853;19;20022;-70
2022/01/25 10:53:08;;;;;;;39.53;20.90;;;5.70;90.40;;;;;;9177817;19;20052;-71
2022/01/25 10:56:14;;;;;;;37.38;19.90;;;5.80;90.50;;;;;;9179846;19;20014;-71
2022/01/25 10:59:21;;;;;;;36.53;19.85;;;5.70;90.50;;;;;;9183015;19;20010;-72
2022/01/25 11:02:27;;;;;;;35.67;20.05;;;5.80;90.40;;;;;;9180514;19;20019;-72
2022/01/25 11:05:37;;;;;;;41.75;20.52;;;5.70;90.40;;;;;;9177253;19;20021;-71
2022/01/25 11:08:43;;;;;;;35.00;19.23;;;5.80;90.40;;;;;;9180454;19;20356;-73
2022/01/25 11:11:52;;;;;;;39.40;21.02;;;5.80;90.40;;;;;;9183644;19;20018;-73
2022/01/25 11:14:57;;;;;;;38.50;20.45;;;5.80;90.50;;;;;;9182595;19;20017;-73
2022/01/25 11:18:03;;;;;;;39.88;21.10;;;5.80;90.40;;;;;;9177823;19;20506;-73
2022/01/25 11:21:13;;;;;;;41.97;20.17;;;5.80;90.40;;;;;;9181157;19;20015;-72
2022/01/25 11:24:20;;;;;;;32.90;19.52;;;5.80;90.40;;;;;;9178714;19;20372;-72
2022/01/25 11:27:28;;;;;;;34.78;18.40;;;5.80;90.40;;;;;;9174288;19;20419;-71
2022/01/25 11:30:33;;;;;;;41.33;21.65;;;5.80;90.40;;;;;;9170774;19;20422;-71
2022/01/25 11:33:43;;;;;;;30.48;18.33;;;5.80;90.40;;;;;;9169152;19;20651;-71
2022/01/25 11:36:56;;;;;;;37.92;18.88;;;5.80;90.40;;;;;;9168179;19;20049;-72
2022/01/25 11:40:01;;;;;;;38.08;19.67;;;5.80;90.40;;;;;;9171561;19;20019;-72
2022/01/25 11:43:10;;;;;;;38.17;18.73;;;5.80;90.40;;;;;;9172601;19;20658;-71
2022/01/25 11:46:15;;;;;;;37.72;19.80;;;5.80;90.40;;;;;;9179738;19;20059;-71
2022/01/25 11:49:22;;;;;;;34.03;19.63;;;5.80;90.40;;;;;;9177918;19;20346;-71
2022/01/25 11:52:32;;;;;;;35.45;19.63;;;5.90;90.40;;;;;;9181224;19;20014;-71
2022/01/25 11:55:39;;;;;;;36.50;19.38;;;5.90;90.30;;;;;;9176334;19;20399;-71
2022/01/25 11:58:54;;;;;;;43.42;19.88;;;5.90;90.40;;;;;;9180054;19;20011;-72
2022/01/25 12:01:58;;;;;;;37.90;19.30;;;5.90;90.40;;;;;;9180868;19;20011;-71
2022/01/25 12:05:06;;;;;;;38.58;19.38;;;5.90;90.40;;;;;;9173653;19;20074;-71
2022/01/25 12:08:24;;;;;;;38.05;19.75;;;5.90;90.30;;;;;;9175559;19;20034;-70
2022/01/25 12:11:38;;;;;;;40.97;19.42;;;5.80;90.30;;;;;;9182492;19;20025;-72
2022/01/25 12:14:50;;;;;;;38.00;19.83;;;5.90;90.30;;;;;;9186685;19;20353;-73
2022/01/25 12:17:55;;;;;;;40.13;20.40;;;5.90;90.30;;;;;;9187151;19;20365;-71
2022/01/25 12:21:00;;;;;;;39.97;20.13;;;5.80;90.30;;;;;;9189663;19;20082;-71
2022/01/25 12:24:24;;;;;;;37.90;20.27;;;5.90;90.40;;;;;;9184086;19;20480;-71
2022/01/25 12:27:50;;;;;;;36.63;19.02;;;5.90;90.30;;;;;;9186583;19;20467;-71
2022/01/25 12:31:01;;;;;;;41.88;20.52;;;5.90;90.30;;;;;;9184466;19;20475;-71
2022/01/25 12:34:28;;;;;;;36.72;18.98;;;5.90;90.40;;;;;;9185983;19;20047;-71
2022/01/25 12:37:59;;;;;;;39.90;20.50;;;5.90;90.30;;;;;;9188020;19;20018;-71
2022/01/25 12:41:13;;;;;;;37.20;18.58;;;5.90;90.40;;;;;;9188144;19;20072;-71
2022/01/25 12:44:23;;;;;;;32.28;18.63;;;5.90;90.40;;;;;;9186762;19;20025;-71
2022/01/25 12:47:28;;;;;;;37.92;18.85;;;5.90;90.30;;;;;;9182894;19;20052;-71
2022/01/25 12:50:34;;;;;;;36.88;18.98;;;5.90;90.40;;;;;;9187304;19;20019;-70
2022/01/25 12:53:43;;;;;;;38.05;19.45;;;5.90;90.30;;;;;;9184767;19;20026;-70
2022/01/25 12:56:54;;;;;;;35.45;19.15;;;5.90;90.30;;;;;;9188343;19;20017;-70
2022/01/25 13:00:00;;;;;;;33.70;18.67;;;5.90;90.30;;;;;;9185654;19;20022;-70
2022/01/25 13:03:26;;;;;;;33.88;18.27;;;5.90;90.30;;;;;;9181595;19;20094;-70
2022/01/25 13:06:33;;;;;;;34.25;19.20;;;5.90;90.30;;;;;;9178187;19;20053;-71
2022/01/25 13:09:44;;;;;;;41.17;19.17;;;5.90;90.40;;;;;;9183245;19;20018;-73
2022/01/25 13:12:59;;;;;;;34.97;19.25;;;6.00;90.40;;;;;;9183588;19;20551;-70
2022/01/25 13:16:04;;;;;;;37.15;18.58;;;5.90;90.30;;;;;;9186173;19;20344;-71
2022/01/25 13:19:10;;;;;;;35.33;18.90;;;6.00;90.40;;;;;;9183082;19;20023;-70
2022/01/25 13:22:19;;;;;;;34.60;18.83;;;6.00;90.40;;;;;;9180624;19;20026;-71
2022/01/25 13:25:34;;;;;;;33.67;18.50;;;6.00;90.30;;;;;;9181987;19;20020;-71
2022/01/25 13:30:38;;;;;;;35.83;17.70;;;6.00;90.30;;;;;;9181806;19;20026;-71
2022/01/25 13:32:26;;;;;;;32.65;16.80;;;6.00;90.30;;;;;;9185647;19;20969;-71
2022/01/25 13:35:35;;;;;;;32.17;17.17;;;6.00;90.30;;;;;;9183823;19;20018;-72
2022/01/25 13:38:41;;;;;;;36.72;18.08;;;6.00;90.30;;;;;;9184783;19;20531;-71
2022/01/25 13:41:52;;;;;;;32.08;16.98;;;6.00;90.30;;;;;;9180651;19;20018;-71
2022/01/25 13:48:35;;;;;;;33.05;16.23;;;6.00;90.30;;;;;;9180755;19;20356;-71
2022/01/25 13:51:44;;;;;;;34.45;17.42;;;6.00;90.30;;;;;;9185485;19;20010;-71
2022/01/25 13:54:54;;;;;;;36.20;18.30;;;6.10;90.30;;;;;;9182048;19;20039;-70
2022/01/25 13:57:59;;;;;;;33.42;18.08;;;6.00;90.30;;;;;;9176742;19;20441;-70
2022/01/25 14:01:10;;;;;;;37.40;17.23;;;6.00;90.30;;;;;;9176533;19;20453;-70
2022/01/25 14:04:19;;;;;;;34.90;17.98;;;6.00;90.30;;;;;;9176476;19;20002;-70
2022/01/25 14:07:24;;;;;;;32.97;17.73;;;6.10;90.30;;;;;;9179541;19;20022;-71
2022/01/25 14:10:29;;;;;;;35.20;17.42;;;6.10;90.30;;;;;;9178414;19;20018;-71
2022/01/25 14:23:33;;;;;;;36.95;17.98;;;6.10;90.30;;;;;;9176478;19;20022;-71
2022/01/25 14:26:40;;;;;;;33.38;16.48;;;6.10;90.30;;;;;;9180702;19;20018;-72
2022/01/25 14:29:45;;;;;;;37.58;16.45;;;6.10;90.30;;;;;;9177573;19;20014;-71
2022/01/25 14:33:02;;;;;;;34.28;17.80;;;6.10;90.30;;;;;;9174012;19;20352;-71
2022/01/25 14:36:12;;;;;;;33.47;17.85;;;6.00;90.20;;;;;;9177835;19;20006;-70
2022/01/25 14:39:18;;;;;;;31.33;16.52;;;6.10;90.20;;;;;;9178660;19;20050;-70
2022/01/25 14:42:23;;;;;;;34.78;16.95;;;6.10;90.20;;;;;;9176518;19;20022;-71
2022/01/25 14:45:28;;;;;;;32.47;16.55;;;6.00;90.20;;;;;;9179984;19;20011;-70
2022/01/25 14:48:37;;;;;;;34.72;17.00;;;6.10;90.50;;;;;;9176002;19;20018;-70
2022/01/25 14:51:44;;;;;;;33.63;17.73;;;6.00;90.50;;;;;;9176434;19;20014;-70
2022/01/25 14:54:49;;;;;;;34.85;17.92;;;6.00;90.20;;;;;;9176551;19;20606;-70
2022/01/25 14:58:04;;;;;;;42.78;17.58;;;6.00;90.20;;;;;;9181715;19;20014;-70
2022/01/25 15:01:12;;;;;;;33.83;17.33;;;6.00;90.20;;;;;;9178905;19;20018;-70
2022/01/25 15:04:20;;;;;;;32.97;17.80;;;6.00;90.20;;;;;;9170285;19;20026;-71
2022/01/25 15:07:27;;;;;;;36.00;17.98;;;6.00;90.20;;;;;;9176282;19;20018;-70
2022/01/25 15:10:42;;;;;;;33.78;17.65;;;6.00;90.20;;;;;;9176591;19;20273;-70
2022/01/25 15:13:50;;;;;;;33.90;18.15;;;6.00;90.20;;;;;;9174946;19;20702;-71
2022/01/25 15:16:55;;;;;;;37.00;17.70;;;6.00;90.30;;;;;;9178620;19;20826;-70
2022/01/25 15:20:04;;;;;;;35.45;18.20;;;6.00;90.20;;;;;;9177095;19;20015;-71
2022/01/25 15:23:10;;;;;;;35.55;17.38;;;6.00;90.20;;;;;;9173351;19;20018;-70
2022/01/25 15:26:16;;;;;;;30.63;17.13;;;5.90;90.10;;;;;;9174559;19;20459;-70
2022/01/25 15:29:23;;;;;;;35.10;17.98;;;6.00;90.20;;;;;;9176443;19;20039;-70
2022/01/25 15:32:29;;;;;;;37.10;19.13;;;5.90;90.10;;;;;;9176280;19;20384;-70
2022/01/25 15:35:36;;;;;;;33.70;17.35;;;5.90;90.20;;;;;;9173391;19;20514;-70
2022/01/25 15:38:42;;;;;;;36.80;18.20;;;5.90;90.10;;;;;;9173540;19;20388;-71
2022/01/25 15:41:48;;;;;;;37.47;18.95;;;5.90;90.10;;;;;;9172678;19;20021;-71
2022/01/25 15:44:55;;;;;;;31.45;16.98;;;5.90;90.10;;;;;;9173434;19;20348;-70
2022/01/25 15:48:01;;;;;;;37.42;17.63;;;5.90;90.10;;;;;;9177790;19;20018;-70
2022/01/25 15:51:09;;;;;;;35.25;18.85;;;5.90;90.10;;;;;;9174868;19;20415;-71
2022/01/25 15:54:14;;;;;;;35.17;17.08;;;5.90;90.20;;;;;;9172224;19;20014;-71
2022/01/25 15:57:19;;;;;;;39.70;20.17;;;5.90;90.10;;;;;;9174262;19;20017;-71
2022/01/25 16:00:24;;;;;;;37.28;18.63;;;5.90;90.20;;;;;;9175642;19;20019;-71
2022/01/25 16:03:32;;;;;;;39.70;18.05;;;5.90;90.10;;;;;;9177589;19;20015;-71
2022/01/25 16:06:40;;;;;;;42.40;18.38;;;5.90;90.20;;;;;;9167611;19;20028;-71
2022/01/25 16:09:48;;;;;;;33.33;16.42;;;5.90;90.20;;;;;;9168538;19;20026;-71
2022/01/25 16:12:53;;;;;;;34.78;16.50;;;5.90;90.20;;;;;;9172729;19;20014;-70
2022/01/25 16:16:00;;;;;;;35.13;17.08;;;5.90;90.20;;;;;;9173759;19;20131;-71
2022/01/25 16:19:05;;;;;;;36.30;17.13;;;5.90;90.20;;;;;;9175506;19;20045;-70
2022/01/25 16:22:13;;;;;;;38.08;17.55;;;5.80;90.20;;;;;;9171941;19;20023;-70
2022/01/25 16:25:18;;;;;;;38.70;17.80;;;5.80;90.20;;;;;;9171020;19;20015;-70
2022/01/25 16:28:23;;;;;;;41.03;17.92;;;5.80;90.10;;;;;;9172702;19;20022;-70
2022/01/25 16:31:32;;;;;;;38.58;18.40;;;5.80;90.10;;;;;;9176966;19;20074;-71
2022/01/25 16:34:38;;;;;;;35.75;16.85;;;5.80;90.10;;;;;;9175834;19;20018;-70
2022/01/25 16:37:46;;;;;;;36.65;17.15;;;5.80;90.10;;;;;;9170440;19;20475;-70
2022/01/25 16:40:51;;;;;;;34.45;16.88;;;5.80;90.40;;;;;;9172970;19;20026;-70
2022/01/25 16:43:56;;;;;;;33.65;17.17;;;5.80;90.10;;;;;;9171278;19;20007;-70
2022/01/25 16:47:02;;;;;;;38.90;17.30;;;5.80;90.10;;;;;;9172124;19;20014;-70
2022/01/25 16:50:09;;;;;;;42.85;19.17;;;5.80;90.20;;;;;;9173743;19;20019;-70
2022/01/25 16:53:17;;;;;;;31.23;16.27;;;5.70;90.10;;;;;;9173512;19;20019;-70
2022/01/25 16:56:22;;;;;;;32.15;16.20;;;5.70;90.10;;;;;;9179515;19;20771;-70
2022/01/25 16:59:28;;;;;;;36.83;16.80;;;5.80;90.20;;;;;;9185538;19;20751;-72
2022/01/25 17:02:33;;;;;;;34.58;17.02;;;5.70;90.10;;;;;;9185733;19;20039;-70
2022/01/25 17:05:39;;;;;;;34.25;15.93;;;5.70;90.20;;;;;;9179829;19;20070;-73
2022/01/25 17:08:47;;;;;;;40.67;18.15;;;5.70;90.10;;;;;;9175039;19;20014;-73
2022/01/25 17:11:54;;;;;;;38.17;19.92;;;5.70;90.10;;;;;;9177678;19;20018;-72
2022/01/25 17:14:59;;;;;;;41.30;19.42;;;5.70;90.10;;;;;;9176414;19;20017;-72
2022/01/25 17:18:04;;;;;;;35.05;18.30;;;5.70;90.10;;;;;;9179172;19;20094;-73
2022/01/25 17:21:09;;;;;;;37.55;17.73;;;5.70;90.10;;;;;;9181955;19;20030;-72
2022/01/25 17:24:17;;;;;;;34.92;17.67;;;5.70;90.10;;;;;;9178620;19;20897;-73
2022/01/25 17:27:22;;;;;;;36.17;16.42;;;5.60;90.10;;;;;;9178400;19;20026;-72
2022/01/25 17:30:28;;;;;;;32.85;17.15;;;5.60;90.10;;;;;;9178248;19;20018;-73
2022/01/25 17:33:34;;;;;;;34.38;16.70;;;5.60;90.10;;;;;;9178564;19;20931;-72
2022/01/25 17:36:39;;;;;;;36.10;16.35;;;5.60;90.10;;;;;;9177563;19;20033;-72
2022/01/25 17:39:47;;;;;;;33.90;17.00;;;5.60;90.10;;;;;;9176271;19;20413;-72